createdAt,value
2022-12-31T00:03:07.487Z,16.375
2022-12-31T00:06:48.227Z,16.375
2022-12-31T00:10:28.090Z,16.375
2022-12-31T00:14:08.415Z,16.312
2022-12-31T00:17:57.951Z,16.312
2022-12-31T00:21:38.287Z,16.312
2022-12-31T00:25:18.891Z,16.312
2022-12-31T00:28:59.218Z,16.25
2022-12-31T00:32:47.807Z,16.25
2022-12-31T00:36:28.172Z,16.25
2022-12-31T00:40:08.379Z,16.25
2022-12-31T00:43:48.769Z,16.187
2022-12-31T00:47:29.254Z,16.25
2022-12-31T00:51:09.548Z,16.187
2022-12-31T00:54:49.831Z,16.187
2022-12-31T00:58:29.931Z,16.187
2022-12-31T01:03:09.752Z,16.187
2022-12-31T01:06:50.413Z,16.187
2022-12-31T01:10:30.876Z,16.125
2022-12-31T01:14:11.718Z,16.125
2022-12-31T01:17:52.339Z,16.125
2022-12-31T01:21:32.542Z,16.125
2022-12-31T01:25:12.809Z,16.125
2022-12-31T01:28:52.902Z,16.125
2022-12-31T01:32:33.897Z,16.125
2022-12-31T01:36:15.427Z,16.125
2022-12-31T01:40:00.672Z,16.062
2022-12-31T01:43:40.682Z,16.062
2022-12-31T01:47:21.511Z,16.062
2022-12-31T01:51:01.667Z,16.0
2022-12-31T01:54:42.041Z,16.0
2022-12-31T01:58:22.372Z,16.0
2022-12-31T02:03:08.325Z,16.0
2022-12-31T02:06:48.803Z,15.937
2022-12-31T02:10:33.695Z,15.937
2022-12-31T02:14:19.302Z,15.937
2022-12-31T02:17:59.866Z,15.937
2022-12-31T02:21:40.809Z,15.937
2022-12-31T02:25:22.343Z,15.937
2022-12-31T02:29:02.806Z,15.937
2022-12-31T02:32:46.133Z,15.937
2022-12-31T02:36:26.355Z,15.937
2022-12-31T02:40:06.498Z,15.937
2022-12-31T02:43:46.709Z,15.937
2022-12-31T02:47:27.352Z,15.875
2022-12-31T02:51:07.558Z,15.875
2022-12-31T02:54:47.747Z,15.875
2022-12-31T02:58:27.967Z,15.875
2022-12-31T03:03:07.744Z,15.875
2022-12-31T03:06:47.901Z,15.875
2022-12-31T03:10:28.166Z,15.875
2022-12-31T03:14:08.482Z,15.812
2022-12-31T03:17:49.304Z,15.812
2022-12-31T03:21:29.815Z,15.812
2022-12-31T03:25:09.805Z,15.812
2022-12-31T03:28:50.141Z,15.812
2022-12-31T03:32:30.659Z,15.812
2022-12-31T03:36:11.174Z,15.812
2022-12-31T03:39:51.458Z,15.812
2022-12-31T03:43:31.575Z,15.812
2022-12-31T03:47:12.090Z,15.75
2022-12-31T03:50:52.305Z,15.75
2022-12-31T03:54:32.601Z,15.75
2022-12-31T03:58:13.891Z,15.75
2022-12-31T04:03:17.681Z,15.75
2022-12-31T04:06:58.585Z,15.75
2022-12-31T04:10:38.907Z,15.75
2022-12-31T04:14:19.251Z,15.75
2022-12-31T04:18:00.171Z,15.75
2022-12-31T04:21:40.451Z,15.75
2022-12-31T04:25:20.649Z,15.75
2022-12-31T04:29:00.948Z,15.687
2022-12-31T04:32:41.586Z,15.687
2022-12-31T04:36:21.811Z,15.75
2022-12-31T04:40:05.877Z,15.687
2022-12-31T04:43:46.783Z,15.687
2022-12-31T04:47:27.575Z,15.687
2022-12-31T04:51:07.771Z,15.687
2022-12-31T04:54:47.962Z,15.687
2022-12-31T04:58:28.419Z,15.687
2022-12-31T05:03:09.278Z,15.687
2022-12-31T05:08:34.966Z,15.687
2022-12-31T05:12:15.201Z,15.687
2022-12-31T05:16:02.960Z,15.625
2022-12-31T05:19:43.867Z,15.625
2022-12-31T05:23:23.910Z,15.625
2022-12-31T05:27:04.530Z,15.625
2022-12-31T05:30:45.191Z,15.625
2022-12-31T05:34:25.897Z,15.625
2022-12-31T05:38:06.333Z,15.625
2022-12-31T05:41:46.603Z,15.625
2022-12-31T05:45:30.439Z,15.625
2022-12-31T05:49:11.631Z,15.625
2022-12-31T05:52:52.074Z,15.625
2022-12-31T05:56:32.301Z,15.625
2022-12-31T06:03:07.244Z,15.562
2022-12-31T06:06:55.260Z,15.562
2022-12-31T06:10:35.639Z,15.562
2022-12-31T06:14:15.795Z,15.562
2022-12-31T06:17:56.575Z,15.562
2022-12-31T06:21:43.660Z,15.562
2022-12-31T06:25:23.823Z,15.562
2022-12-31T06:29:09.216Z,15.562
2022-12-31T06:32:50.008Z,15.562
2022-12-31T06:36:30.217Z,15.562
2022-12-31T06:40:10.622Z,15.562
2022-12-31T06:43:50.788Z,15.562
2022-12-31T06:47:31.707Z,15.562
2022-12-31T06:51:17.052Z,15.562
2022-12-31T06:54:57.924Z,15.562
2022-12-31T06:58:38.162Z,15.5
2022-12-31T07:03:08.075Z,15.5
2022-12-31T07:06:48.692Z,15.5
2022-12-31T07:10:29.782Z,15.5
2022-12-31T07:14:10.281Z,15.5
2022-12-31T07:17:51.357Z,15.5
2022-12-31T07:21:38.020Z,15.5
2022-12-31T07:25:18.412Z,15.5
2022-12-31T07:28:58.595Z,15.5
2022-12-31T07:32:39.376Z,15.5
2022-12-31T07:36:23.817Z,15.5
2022-12-31T07:40:04.194Z,15.5
2022-12-31T07:43:53.231Z,15.5
2022-12-31T07:47:34.242Z,15.5
2022-12-31T07:51:14.749Z,15.5
2022-12-31T07:55:02.354Z,15.5
2022-12-31T07:58:42.671Z,15.5
2022-12-31T08:03:07.730Z,15.5
2022-12-31T08:06:48.371Z,15.5
2022-12-31T08:10:34.803Z,15.562
2022-12-31T08:14:14.973Z,15.562
2022-12-31T08:18:02.999Z,15.562
2022-12-31T08:21:43.248Z,15.562
2022-12-31T08:25:23.624Z,15.5
2022-12-31T08:29:04.065Z,15.5
2022-12-31T08:32:44.803Z,15.562
2022-12-31T08:36:32.255Z,15.562
2022-12-31T08:40:12.921Z,15.625
2022-12-31T08:43:53.718Z,15.625
2022-12-31T08:47:38.434Z,15.625
2022-12-31T08:51:24.560Z,15.625
2022-12-31T08:55:04.973Z,15.625
2022-12-31T08:58:45.178Z,15.687
2022-12-31T09:03:14.356Z,15.625
2022-12-31T09:06:55.380Z,15.625
2022-12-31T09:10:35.688Z,15.625
2022-12-31T09:14:18.025Z,15.625
2022-12-31T09:17:58.907Z,15.625
2022-12-31T09:21:39.167Z,15.687
2022-12-31T09:25:19.318Z,15.687
2022-12-31T09:29:07.919Z,15.75
2022-12-31T09:32:48.764Z,15.75
2022-12-31T09:36:36.188Z,15.812
2022-12-31T09:40:16.413Z,15.75
2022-12-31T09:44:00.938Z,15.75
2022-12-31T09:47:42.210Z,15.75
2022-12-31T09:51:25.472Z,15.75
2022-12-31T09:55:06.221Z,15.687
2022-12-31T09:58:50.996Z,15.687
2022-12-31T10:03:08.811Z,15.687
2022-12-31T10:06:49.839Z,15.687
2022-12-31T10:10:36.980Z,15.687
2022-12-31T10:14:16.975Z,15.75
2022-12-31T10:17:57.779Z,15.75
2022-12-31T10:21:38.242Z,15.75
2022-12-31T10:25:18.728Z,15.75
2022-12-31T10:29:21.693Z,15.75
2022-12-31T10:33:08.964Z,15.812
2022-12-31T10:36:49.268Z,15.75
2022-12-31T10:40:37.695Z,15.75
2022-12-31T10:44:17.898Z,15.75
2022-12-31T10:48:05.227Z,15.812
2022-12-31T10:51:45.813Z,15.812
2022-12-31T10:55:32.587Z,15.812
2022-12-31T10:59:12.847Z,15.812
2022-12-31T11:03:09.247Z,15.812
2022-12-31T11:06:58.822Z,15.812
2022-12-31T11:10:39.386Z,15.812
2022-12-31T11:14:19.953Z,15.812
2022-12-31T11:18:01.208Z,15.812
2022-12-31T11:21:49.018Z,15.812
2022-12-31T11:25:29.466Z,15.812
2022-12-31T11:29:13.924Z,15.812
2022-12-31T11:32:55.220Z,15.812
2022-12-31T11:36:42.840Z,15.812
2022-12-31T11:40:23.191Z,15.875
2022-12-31T11:44:03.643Z,15.875
2022-12-31T11:48:20.143Z,15.812
2022-12-31T11:52:21.216Z,15.875
2022-12-31T11:56:02.047Z,15.812
2022-12-31T11:59:51.917Z,15.75
2022-12-31T12:03:06.943Z,15.812
2022-12-31T12:06:56.792Z,15.812
2022-12-31T12:10:37.271Z,15.875
2022-12-31T12:14:17.817Z,15.875
2022-12-31T12:17:58.866Z,15.937
2022-12-31T12:21:39.343Z,15.875
2022-12-31T12:25:26.990Z,15.875
2022-12-31T12:29:14.235Z,15.875
2022-12-31T12:32:55.236Z,15.812
2022-12-31T12:36:41.516Z,15.875
2022-12-31T12:40:22.322Z,15.875
2022-12-31T12:44:09.014Z,15.875
2022-12-31T12:47:49.899Z,15.812
2022-12-31T12:51:30.178Z,15.812
2022-12-31T12:55:10.589Z,15.75
2022-12-31T12:58:56.840Z,15.75
2022-12-31T13:03:09.079Z,15.75
2022-12-31T13:07:28.097Z,15.75
2022-12-31T13:11:08.793Z,15.75
2022-12-31T13:15:39.817Z,15.687
2022-12-31T13:19:31.560Z,15.75
2022-12-31T13:23:12.007Z,15.75
2022-12-31T13:26:52.319Z,15.75
2022-12-31T13:30:32.561Z,15.687
2022-12-31T13:34:13.421Z,15.687
2022-12-31T13:37:54.031Z,15.687
2022-12-31T13:41:40.514Z,15.687
2022-12-31T13:45:27.633Z,15.687
2022-12-31T13:49:08.617Z,15.687
2022-12-31T13:52:57.562Z,15.687
2022-12-31T13:56:45.353Z,15.687
2022-12-31T14:03:16.217Z,15.687
2022-12-31T14:06:56.714Z,15.687
2022-12-31T14:10:40.431Z,15.687
2022-12-31T14:14:23.921Z,15.687
2022-12-31T14:18:04.866Z,15.687
2022-12-31T14:21:45.541Z,15.687
2022-12-31T14:25:25.910Z,15.687
2022-12-31T14:29:13.158Z,15.687
2022-12-31T14:32:53.893Z,15.687
2022-12-31T14:36:42.057Z,15.687
2022-12-31T14:40:22.464Z,15.687
2022-12-31T14:44:02.851Z,15.625
2022-12-31T14:47:43.816Z,15.687
2022-12-31T14:51:24.202Z,15.687
2022-12-31T14:55:11.722Z,15.625
2022-12-31T14:59:17.914Z,15.625
2022-12-31T15:03:08.289Z,15.687
2022-12-31T15:06:48.773Z,15.687
2022-12-31T15:10:37.281Z,15.625
2022-12-31T15:14:17.772Z,15.687
2022-12-31T15:18:06.929Z,15.687
2022-12-31T15:21:56.936Z,15.625
2022-12-31T15:25:41.231Z,15.687
2022-12-31T15:29:22.111Z,15.687
2022-12-31T15:33:10.508Z,15.687
2022-12-31T15:36:51.119Z,15.75
2022-12-31T15:40:31.453Z,15.687
2022-12-31T15:44:57.981Z,15.687
2022-12-31T15:48:38.947Z,15.687
2022-12-31T15:52:22.474Z,15.687
2022-12-31T15:56:03.006Z,15.625
2022-12-31T15:59:50.438Z,15.625
2022-12-31T16:03:09.639Z,15.625
2022-12-31T16:06:51.268Z,15.625
2022-12-31T16:10:31.985Z,15.625
2022-12-31T16:14:25.037Z,15.625
2022-12-31T16:18:05.819Z,15.625
2022-12-31T16:21:52.369Z,15.625
2022-12-31T16:26:17.334Z,15.625
2022-12-31T16:29:57.731Z,15.625
2022-12-31T16:33:38.238Z,15.625
2022-12-31T16:37:18.718Z,15.625
2022-12-31T16:40:58.939Z,15.625
2022-12-31T16:44:39.100Z,15.687
2022-12-31T16:48:19.828Z,15.687
2022-12-31T16:51:59.886Z,15.687
2022-12-31T16:55:47.618Z,15.687
2022-12-31T16:59:33.358Z,15.75
2022-12-31T17:03:08.836Z,15.812
2022-12-31T17:08:34.677Z,15.875
2022-12-31T17:12:15.013Z,15.937
2022-12-31T17:16:24.097Z,15.937
2022-12-31T17:20:04.433Z,15.937
2022-12-31T17:23:55.258Z,16.0
2022-12-31T17:27:35.682Z,16.0
2022-12-31T17:31:18.539Z,16.0
2022-12-31T17:34:59.536Z,16.0
2022-12-31T17:38:47.290Z,16.0
2022-12-31T17:43:15.407Z,16.0
2022-12-31T17:47:04.532Z,16.0
2022-12-31T17:50:44.946Z,16.0
2022-12-31T17:54:30.944Z,16.0
2022-12-31T17:58:11.129Z,16.062
2022-12-31T18:03:08.943Z,16.062
2022-12-31T18:06:56.050Z,16.062
2022-12-31T18:10:36.426Z,16.062
2022-12-31T18:14:16.960Z,16.062
2022-12-31T18:17:57.837Z,16.0
2022-12-31T18:21:58.271Z,16.062
2022-12-31T18:29:17.362Z,16.125
2022-12-31T18:33:03.742Z,16.062
2022-12-31T18:37:42.022Z,16.062
2022-12-31T18:41:22.311Z,16.062
2022-12-31T18:45:02.696Z,16.062
2022-12-31T18:48:44.060Z,16.062
2022-12-31T18:52:24.454Z,16.062
2022-12-31T18:56:04.731Z,16.062
2022-12-31T18:59:51.559Z,16.062
2022-12-31T19:03:07.920Z,16.062
2022-12-31T19:06:56.883Z,16.062
2022-12-31T19:11:25.406Z,16.062
2022-12-31T19:15:05.747Z,16.062
2022-12-31T19:18:45.821Z,16.062
2022-12-31T19:22:26.082Z,16.062
2022-12-31T19:26:07.110Z,16.062
2022-12-31T19:29:47.424Z,16.062
2022-12-31T19:33:28.270Z,16.062
2022-12-31T19:37:15.615Z,16.062
2022-12-31T19:40:55.831Z,16.062
2022-12-31T19:44:45.166Z,16.062
2022-12-31T19:48:32.035Z,16.0
2022-12-31T19:52:13.092Z,15.937
2022-12-31T19:55:53.390Z,15.937
2022-12-31T19:59:33.747Z,15.937
2022-12-31T20:03:08.664Z,15.937
2022-12-31T20:06:49.438Z,15.937
2022-12-31T20:10:30.142Z,15.875
2022-12-31T20:14:19.145Z,15.875
2022-12-31T20:17:59.938Z,15.875
2022-12-31T20:21:44.684Z,15.875
2022-12-31T20:25:24.862Z,15.812
2022-12-31T20:29:10.357Z,15.812
2022-12-31T20:32:51.298Z,15.812
2022-12-31T20:36:31.672Z,15.812
2022-12-31T20:40:12.006Z,15.812
2022-12-31T20:43:52.327Z,15.812
2022-12-31T20:47:40.079Z,15.812
2022-12-31T20:52:01.606Z,15.812
2022-12-31T20:55:42.000Z,15.75
2022-12-31T20:59:25.624Z,15.75
2022-12-31T21:04:54.533Z,15.75
2022-12-31T21:08:36.859Z,15.75
2022-12-31T21:12:17.098Z,15.75
2022-12-31T21:15:57.602Z,15.75
2022-12-31T21:19:38.454Z,15.75
2022-12-31T21:23:18.744Z,15.75
2022-12-31T21:27:06.554Z,15.75
2022-12-31T21:31:05.231Z,15.75
2022-12-31T21:34:55.344Z,15.75
2022-12-31T21:39:51.811Z,15.75
2022-12-31T21:43:32.258Z,15.75
2022-12-31T21:48:13.855Z,15.75
2022-12-31T21:51:54.470Z,15.687
2022-12-31T21:55:34.996Z,15.687
2022-12-31T22:03:49.693Z,15.687
2022-12-31T22:08:08.496Z,15.687
2022-12-31T22:11:49.009Z,15.687
2022-12-31T22:16:05.919Z,15.687
2022-12-31T22:20:08.932Z,15.687
2022-12-31T22:24:13.177Z,15.687
2022-12-31T22:29:05.609Z,15.687
2022-12-31T22:32:50.062Z,15.687
2022-12-31T22:36:30.361Z,15.687
2022-12-31T22:41:30.137Z,15.687
2022-12-31T22:45:10.381Z,15.687
2022-12-31T22:48:51.584Z,15.687
2022-12-31T22:52:52.049Z,15.687
2022-12-31T22:56:32.329Z,15.687
2022-12-31T23:03:14.000Z,15.687
2022-12-31T23:07:08.079Z,15.687
2022-12-31T23:11:03.541Z,15.687
2022-12-31T23:14:43.820Z,15.687
2022-12-31T23:18:59.174Z,15.687
2022-12-31T23:22:42.274Z,15.687
2022-12-31T23:26:22.793Z,15.687
2022-12-31T23:30:12.632Z,15.687
2022-12-31T23:33:53.628Z,15.687
2022-12-31T23:37:41.550Z,15.687
2022-12-31T23:41:22.152Z,15.687
2022-12-31T23:45:02.483Z,15.687
2022-12-31T23:48:43.031Z,15.687
2022-12-31T23:52:31.255Z,15.687
2022-12-31T23:56:14.967Z,15.687
2022-12-31T23:59:58.914Z,15.687
